Airfield :
LOGIN :

Register | Disclaimer

   EN    FR    IT 

 










Legend :    VFR   Marginal VFR   IFR   Intensive IFR   Very Intensive IFR
Visi :
Ceiling :
>= 8 km
>= 3000ft
5 to 8 km
1000 to 3000 ft
1500m to 5 km
500 to 1000 ft
800 to 1500m
200 to 500 ft
< 800m
< 200 ft
Symbols :   Thunderstorms  Fog  Heavy snow  Heavy precipitations  Wind > 20 kt
SIGMETs :     Misc.  Thunderstorms  Icing  Turbulence  Mountain Waves  Volcanic Ashes







- Airport Elevation : 424 ft
- IATA code : QGY


LHPR - Györ Per

CURRENT METAR :
  • 260515Z 12004KT CAVOK 23/21 Q1024

EXPIRED METARs :
  • 260445Z VRB03KT CAVOK 22/20 Q1024
  • 260415Z VRB01KT CAVOK 21/20 Q1024
  • 260345Z AUTO 11005KT 7000 NCD 20/19 Q1024
  • 260315Z AUTO 11004KT 5000 BR NCD 19/19 Q1024
  • 260245Z AUTO 10004KT 060V120 5000 BR NCD 19/19 Q1024

TAF TAF LHPR
Valid from the 26 at 06:00 until the 26 at 15:00 UTC


260515Z 2606/2615 20008KT CAVOK
No reported NOTAMs for that airfield.



MET'MAP, your aeronautical weather chart ! - Copyright ORBIFLY December 2007 - Disclaimer

ORBIFLY MET'MAP TEAM :

Programming & Development : Alexandra Zaïnal
Concept & Development : Baudouin d'Aumeries
Co-Development & Prog : Marc-Olivier Méhu
Technical & hardware support : Manuel Goepfert

Contact : metmap@orbifly.com




SOURCES & CREDITS :

   NOAA